Accueil
METAR-TAF:

METAR-TAF

Aéroports :

Passo Rolle, Italie

latitude: 46-18N, longitude: 011-47E, altitude: 2004 m

Observation

Le bulletin a été fait il y a 1 heure et 49 minutes, à 10:55 UTC
Vent 6 kt de nord/nord-ouest
Température -6°C
Humidité 53%
Pression 1005 hPa
Visibilité 10 km ou plus
Quelques nuages à une hauteur de 2000 ft

METAR: LIVR 181055Z 33006KT 9999 FEW020 M06/M14 Q1005 RMK BKN BKN090 MON LIB VIS MIN 9999

Heure: 13:44 (12:44 UTC)


TAF: absent

Observations et prévisions météorologiques de plus de 4000 aéroports (messages METAR et TAF).

Les stations disponibles sont représentées par des disques jaunes et rouges sur la carte.

Passer la souris dessus pour voir le nom de la station.

Cliquer dessus pour voir les observations et prévisions météorologiques.

Pour changer de carte: cliquez sur les boutons verts avec une croix noire pour zoomer, sur le bouton vert avec un tiret pour effectuer un zoom arrière, ou sur les flèches vertes pour les cartes adjacentes.


METAR-TAF: